Terminal Aerodrome Forecast
Issued by NWS

Home | Current Version | Previous Version | Text Only | Print | Product List | Glossary On
Versions: 1 2 3 4 5 6 7 8 9 10 11 12 13 14 15 16 17 18 19 20 21 22 23 24 25
000
FTUS44 KLZK 271100
TAFLLQ
TAF
KLLQ 271126Z 2712/2812 06010G20KT P6SM BKN050 OVC100
     FM271400 09010G18KT P6SM VCSH BKN050 OVC100
     FM280600 07008G15KT 5SM -SHRA BR OVC035
     FM280900 05008KT 4SM -SHRA BR SCT008 BKN020=

USA.gov is the U.S. government's official web portal to all federal, state and local government web resources and services.